Jamestown, Missouri
Current Conditions -  °F | °C
As of 8:54 PM on Thursday 18 Dec 2014 (Local Time) from KCOU Reporting Station
Haze Haze  
Wind Chill: 26°   Ceiling: 600
Heat Index: 32°   Visibility: 6mi
Dew Point: 30°   Wind: 6mph
Humidity: 92%   Direction: 90°E
Pressure: 30.25"   Gusts: NA
Location:  38.77°N, 92.48°W
Report Text: KCOU 190254Z AUTO 09005KT 6SM BR OVC006 00/M01 A3025 RMK AO2 SLP250 T00001011 51009
Loading
Personal Weather Stations






























Interactive Weather Map New forecast layout! Learn more

10-Day Weather Forecast

Advertisements
Track Severe Weather on mobile